EmailTwitter


Observations de surface / Québec / LFBZ

Régions: Québec | Canada | États-Unis | Europe | France | UK | Elsewhere
Station
Affichage
Infos & localisation pour LFBZ | Aide pour décoder les METARs

Observations prises le 2017-02-23 à 04H30 UTC à BIARRITZ/ANGLET, FR (LFBZ)

Température: 10.0 Celsius

Point de rosée: 10.0 Celsius

Humidité relative: 100%

Vents: Ouest à 9 km/h ou 5 noeuds.

Pression au niveau moyen de la mer: 101.50 kilopascals.

Observation METAR:

LFBZ 230430Z AUTO 26005KT 4700 BR OVC003 10/10 Q1015 TEMPO 0300 FG VV///=